Time;durP1;ratioP1;P1;durP2;ratioP2;P2;SDS_P1;SDS_P2;PMS_P1;PMS_P2;Temp;Humidity;BMP_temperature;BMP_pressure;BME280_temperature;BME280_humidity;BME280_pressure;Samples;Min_cycle;Max_cycle;Signal;HPM_P1;HPM_P2
2021/11/20 00:00:54;;;;;;;5.15;1.63;;;;;;;16.75;61.10;101857.72;4840963;29;20064;-96
2021/11/20 00:03:19;;;;;;;9.32;2.30;;;;;;;16.58;61.40;101845.63;4841059;29;20310;-96
2021/11/20 00:05:50;;;;;;;4.75;1.98;;;;;;;16.64;61.36;101850.50;4841215;29;20314;-96
2021/11/20 00:08:16;;;;;;;7.23;2.20;;;;;;;16.77;61.29;101841.69;4841520;29;20029;-96
2021/11/20 00:10:45;;;;;;;6.38;2.10;;;;;;;16.74;61.22;101844.56;4841482;29;20400;-96
2021/11/20 00:13:11;;;;;;;5.30;2.33;;;;;;;16.58;61.62;101839.50;4841278;29;20105;-96
2021/11/20 00:15:40;;;;;;;8.77;3.05;;;;;;;16.52;61.82;101830.16;4840614;29;20022;-94
2021/11/20 00:18:07;;;;;;;12.07;3.75;;;;;;;16.61;61.37;101828.69;4840782;29;20033;-94
2021/11/20 00:20:35;;;;;;;4.47;2.45;;;;;;;16.64;61.37;101823.97;4841095;29;20060;-93
2021/11/20 00:23:01;;;;;;;7.03;2.88;;;;;;;16.72;61.58;101825.25;4841410;29;20063;-93
2021/11/20 00:25:31;;;;;;;4.80;2.53;;;;;;;16.72;61.30;101825.25;4840668;29;20393;-94
2021/11/20 00:27:59;;;;;;;7.35;2.60;;;;;;;16.64;61.83;101823.97;4841259;29;20026;-94
2021/11/20 00:30:39;;;;;;;4.90;2.47;;;;;;;16.65;61.69;101825.69;4843422;29;20030;-94
2021/11/20 00:33:07;;;;;;;13.68;5.00;;;;;;;16.57;61.88;101821.91;4845009;29;20033;-94
2021/11/20 00:35:42;;;;;;;8.10;3.35;;;;;;;16.70;62.01;101830.66;4844495;29;20370;-94
2021/11/20 00:38:09;;;;;;;10.48;3.90;;;;;;;16.56;62.07;101821.03;4843981;29;20110;-94
2021/11/20 00:40:43;;;;;;;5.68;3.33;;;;;;;16.53;62.55;101823.03;4844266;29;20044;-94
2021/11/20 00:43:09;;;;;;;7.28;4.10;;;;;;;16.51;62.52;101823.19;4844372;29;20033;-94
2021/11/20 00:45:35;;;;;;;6.85;3.92;;;;;;;16.59;62.46;101820.00;4844170;29;20409;-94
2021/11/20 00:48:01;;;;;;;5.18;2.95;;;;;;;16.61;62.26;101821.56;4843753;29;20034;-94
2021/11/20 00:50:27;;;;;;;6.60;2.97;;;;;;;16.64;62.35;101812.53;4844194;29;20503;-92
2021/11/20 00:52:52;;;;;;;8.23;4.00;;;;;;;16.57;62.55;101817.44;4843471;29;20038;-93
2021/11/20 00:55:23;;;;;;;9.30;4.07;;;;;;;16.58;62.59;101812.97;4843995;29;20036;-93
2021/11/20 00:57:49;;;;;;;9.88;3.97;;;;;;;16.64;62.28;101807.22;4844162;29;20109;-93
2021/11/20 01:00:17;;;;;;;8.30;3.88;;;;;;;16.48;62.73;101809.28;4843957;29;20030;-93
2021/11/20 01:02:42;;;;;;;5.80;3.10;;;;;;;16.45;62.77;101807.72;4825563;29;20031;-93
2021/11/20 01:05:11;;;;;;;6.00;2.88;;;;;;;16.48;62.53;101801.31;4825588;29;20378;-94
2021/11/20 01:07:36;;;;;;;7.75;3.08;;;;;;;16.53;62.48;101809.78;4825417;29;20486;-96
2021/11/20 01:10:05;;;;;;;8.20;3.10;;;;;;;16.60;62.24;101806.59;4825632;29;20029;-94
2021/11/20 01:12:31;;;;;;;6.38;2.67;;;;;;;16.70;62.22;101805.94;4824649;29;20091;-94
2021/11/20 01:14:57;;;;;;;3.92;2.58;;;;;;;16.73;61.69;101805.75;4825423;29;20030;-93
2021/11/20 01:17:26;;;;;;;7.88;2.60;;;;;;;16.72;61.86;101799.56;4825270;29;20029;-93
2021/11/20 01:19:53;;;;;;;8.05;2.65;;;;;;;16.66;61.74;101800.84;4825239;29;20454;-92
2021/11/20 01:22:20;;;;;;;6.20;2.40;;;;;;;16.58;61.83;101805.84;4825066;29;20034;-93
2021/11/20 01:24:46;;;;;;;6.00;1.85;;;;;;;16.61;61.35;101797.69;4825240;29;20057;-93
2021/11/20 01:27:12;;;;;;;6.72;2.15;;;;;;;16.66;60.96;101803.50;4836018;29;20149;-94
2021/11/20 01:29:38;;;;;;;6.28;2.30;;;;;;;16.59;61.32;101799.63;4843779;29;20034;-93
2021/11/20 01:32:05;;;;;;;3.55;1.50;;;;;;;16.59;61.31;101804.06;4843470;29;20037;-94
2021/11/20 01:34:30;;;;;;;9.60;2.58;;;;;;;16.50;61.34;101805.56;4843455;29;20101;-93
2021/11/20 01:36:58;;;;;;;10.55;2.20;;;;;;;16.36;61.73;101803.03;4842836;29;20541;-93
2021/11/20 01:39:28;;;;;;;8.13;2.28;;;;;;;16.49;61.53;101800.34;4843183;29;20058;-93
2021/11/20 01:42:01;;;;;;;9.15;1.80;;;;;;;16.41;61.73;101801.78;4842871;29;20117;-93
2021/11/20 01:44:34;;;;;;;10.57;1.80;;;;;;;16.42;61.61;101802.59;4842994;29;20472;-93
2021/11/20 01:47:06;;;;;;;6.90;1.83;;;;;;;16.47;61.41;101795.19;4843285;29;20070;-94
2021/11/20 01:49:38;;;;;;;3.85;1.50;;;;;;;16.61;61.02;101791.56;4843416;29;20037;-93
2021/11/20 01:52:38;;;;;;;4.95;1.70;;;;;;;16.52;61.31;101803.66;4842969;29;20029;-96
2021/11/20 01:55:13;;;;;;;6.20;1.63;;;;;;;16.29;61.08;101796.47;4830086;29;20094;-96
2021/11/20 01:58:14;;;;;;;5.18;2.30;;;;;;;16.37;61.42;101788.81;4842543;29;20029;-96
2021/11/20 02:00:48;;;;;;;5.03;1.60;;;;;;;16.59;59.98;101786.34;4841471;29;20386;-96
2021/11/20 02:03:18;;;;;;;4.75;1.88;;;;;;;16.49;60.24;101793.28;4843115;29;20473;-96
2021/11/20 02:06:08;;;;;;;5.75;1.48;;;;;;;16.25;61.44;101791.41;4842950;29;20026;-96
2021/11/20 02:08:39;;;;;;;4.03;1.52;;;;;;;16.38;61.22;101795.81;4842821;29;20018;-95
2021/11/20 02:11:12;;;;;;;6.15;2.15;;;;;;;16.45;60.71;101797.94;4842903;29;20065;-96
2021/11/20 02:13:38;;;;;;;4.00;1.48;;;;;;;16.45;60.92;101792.63;4842069;29;20072;-96
2021/11/20 02:16:16;;;;;;;4.53;1.30;;;;;;;16.53;60.58;101786.78;4842224;29;20026;-95
2021/11/20 02:18:49;;;;;;;4.57;1.70;;;;;;;16.52;60.83;101797.50;4842827;29;20140;-96
2021/11/20 02:21:27;;;;;;;4.53;1.90;;;;;;;16.54;60.68;101784.97;4842617;29;20163;-96
2021/11/20 02:23:53;;;;;;;5.82;1.75;;;;;;;16.35;61.09;101780.13;4842549;29;20022;-96
2021/11/20 02:26:18;;;;;;;5.50;1.95;;;;;;;16.24;61.15;101792.34;4842570;29;20026;-96
2021/11/20 02:28:45;;;;;;;6.53;2.00;;;;;;;16.41;60.88;101780.56;4842550;29;20034;-96
2021/11/20 02:31:11;;;;;;;3.22;1.70;;;;;;;16.41;60.77;101774.38;4842089;29;20038;-96
2021/11/20 02:33:39;;;;;;;5.93;1.75;;;;;;;16.23;61.19;101777.41;4842302;29;20122;-96
2021/11/20 02:36:14;;;;;;;3.70;2.08;;;;;;;16.16;61.38;101772.63;4841076;29;20049;-96
2021/11/20 02:39:00;;;;;;;4.03;1.67;;;;;;;16.15;61.46;101779.75;4842368;29;20034;-96
2021/11/20 02:41:28;;;;;;;6.40;2.13;;;;;;;16.20;61.46;101779.41;4842592;29;20030;-96
2021/11/20 02:43:57;;;;;;;3.40;1.67;;;;;;;16.24;61.57;101773.78;4841625;29;20026;-96
2021/11/20 02:46:26;;;;;;;5.35;2.30;;;;;;;16.18;61.40;101776.03;4841447;29;20053;-96
2021/11/20 02:48:52;;;;;;;4.72;2.03;;;;;;;16.17;61.18;101771.66;4842053;29;20534;-96
2021/11/20 02:51:23;;;;;;;3.00;1.92;;;;;;;16.19;61.12;101775.06;4830320;29;20065;-96
2021/11/20 02:53:59;;;;;;;3.28;2.00;;;;;;;16.32;60.63;101769.75;4841880;29;20477;-96
2021/11/20 02:56:33;;;;;;;4.03;1.80;;;;;;;16.27;61.17;101764.75;4841946;29;20408;-96
2021/11/20 02:58:58;;;;;;;6.65;2.28;;;;;;;16.40;60.96;101757.66;4841470;29;20034;-96
2021/11/20 03:01:27;;;;;;;4.18;2.30;;;;;;;16.35;61.08;101743.88;4841776;29;20066;-93
2021/11/20 03:03:53;;;;;;;3.70;1.70;;;;;;;16.23;61.23;101747.38;4840678;29;20057;-93
2021/11/20 03:06:19;;;;;;;2.65;1.30;;;;;;;16.31;60.78;101745.06;4841905;29;20481;-94
2021/11/20 03:08:44;;;;;;;2.80;1.75;;;;;;;15.88;62.14;101747.19;4841845;29;20069;-96
2021/11/20 03:11:13;;;;;;;5.18;1.92;;;;;;;16.18;61.34;101747.72;4841679;29;20113;-96
2021/11/20 03:13:43;;;;;;;2.63;1.70;;;;;;;16.07;61.72;101744.97;4840534;29;20398;-96
2021/11/20 03:16:09;;;;;;;5.90;1.83;;;;;;;16.24;61.56;101733.19;4841610;29;20053;-95
2021/11/20 03:18:35;;;;;;;1.75;1.45;;;;;;;16.24;61.42;101734.03;4841616;29;20128;-96
2021/11/20 03:21:00;;;;;;;3.17;2.03;;;;;;;16.31;61.46;101737.13;4841087;29;20097;-96
2021/11/20 03:23:30;;;;;;;3.10;1.70;;;;;;;16.26;61.74;101729.47;4841494;29;20048;-96
2021/11/20 03:25:56;;;;;;;2.33;1.95;;;;;;;16.23;61.75;101724.41;4841300;29;20030;-96
2021/11/20 03:28:22;;;;;;;3.30;1.70;;;;;;;16.35;61.36;101727.97;4841499;29;20099;-96
2021/11/20 03:30:49;;;;;;;2.08;1.40;;;;;;;16.16;61.58;101717.84;4841600;29;20030;-96
2021/11/20 03:33:15;;;;;;;2.13;1.55;;;;;;;16.13;61.79;101715.38;4841096;29;20079;-95
2021/11/20 03:35:42;;;;;;;3.25;1.48;;;;;;;16.05;62.22;101715.09;4841487;29;20026;-96
2021/11/20 03:38:08;;;;;;;3.08;1.45;;;;;;;16.14;62.24;101709.16;4841509;29;20030;-96
2021/11/20 03:40:34;;;;;;;3.78;1.30;;;;;;;15.90;62.86;101713.53;4841372;29;20034;-96
2021/11/20 03:42:59;;;;;;;5.05;1.60;;;;;;;15.94;62.95;101707.06;4841339;29;20032;-93
2021/11/20 03:45:28;;;;;;;2.88;1.70;;;;;;;15.86;63.06;101705.78;4841492;29;20554;-94
2021/11/20 03:47:53;;;;;;;3.58;1.90;;;;;;;15.83;63.18;101700.69;4841591;29;20029;-93
2021/11/20 03:50:19;;;;;;;4.25;2.13;;;;;;;15.91;62.90;101696.66;4841562;29;20026;-93
2021/11/20 03:52:45;;;;;;;4.90;1.83;;;;;;;15.79;63.38;101688.63;4841090;29;20057;-93
2021/11/20 03:55:15;;;;;;;3.03;1.90;;;;;;;15.82;63.43;101691.06;4841143;29;20053;-93
2021/11/20 03:57:41;;;;;;;2.88;1.60;;;;;;;16.06;62.76;101695.59;4841444;29;20030;-94
2021/11/20 04:00:10;;;;;;;3.85;2.00;;;;;;;15.91;62.97;101686.06;4840969;29;20030;-94
2021/11/20 04:02:36;;;;;;;3.13;1.75;;;;;;;16.03;62.75;101688.72;4841034;29;20042;-93
2021/11/20 04:05:02;;;;;;;3.90;2.08;;;;;;;16.02;62.67;101687.00;4844753;29;20132;-96
2021/11/20 04:07:28;;;;;;;4.38;2.15;;;;;;;16.04;62.62;101679.81;4844959;29;20073;-95
2021/11/20 04:09:53;;;;;;;5.90;1.80;;;;;;;16.06;62.67;101680.53;4844993;29;20477;-95
2021/11/20 04:12:19;;;;;;;3.03;2.08;;;;;;;16.09;63.03;101679.47;4844868;29;20034;-96
2021/11/20 04:14:44;;;;;;;4.72;2.58;;;;;;;16.06;63.16;101677.06;4844749;29;20030;-93
2021/11/20 04:17:09;;;;;;;2.30;2.10;;;;;;;16.11;62.57;101682.84;4844540;29;20022;-93
2021/11/20 04:19:35;;;;;;;3.33;2.30;;;;;;;16.11;63.14;101677.56;4844520;29;20026;-93
2021/11/20 04:22:00;;;;;;;3.28;2.38;;;;;;;16.10;63.21;101681.19;4844618;29;20022;-96
2021/11/20 04:24:26;;;;;;;3.75;2.28;;;;;;;16.11;62.94;101677.56;4844391;29;20034;-96
2021/11/20 04:26:51;;;;;;;3.28;1.92;;;;;;;16.18;63.08;101675.34;4844533;29;20034;-96
2021/11/20 04:29:18;;;;;;;4.13;2.15;;;;;;;16.11;63.36;101666.94;4844506;29;20033;-96
2021/11/20 04:31:45;;;;;;;4.80;2.10;;;;;;;16.16;63.16;101664.84;4844400;29;20041;-96
2021/11/20 04:34:10;;;;;;;4.32;2.30;;;;;;;16.04;63.54;101660.41;4844401;29;20034;-96
2021/11/20 04:36:36;;;;;;;3.00;2.22;;;;;;;15.99;63.80;101663.38;4844016;29;20511;-95
2021/11/20 04:39:05;;;;;;;3.00;1.88;;;;;;;15.89;63.74;101657.03;4844323;29;20033;-95
2021/11/20 04:41:31;;;;;;;3.85;2.45;;;;;;;15.90;64.46;101661.41;4844281;29;20078;-95
2021/11/20 04:43:56;;;;;;;3.60;2.55;;;;;;;15.91;64.39;101660.44;4844286;29;20029;-96
2021/11/20 04:46:24;;;;;;;3.03;2.28;;;;;;;15.78;64.26;101657.81;4843750;29;20030;-95
2021/11/20 04:48:51;;;;;;;3.47;2.13;;;;;;;15.83;64.66;101665.41;4844122;29;20113;-95
2021/11/20 04:51:17;;;;;;;5.05;2.15;;;;;;;15.87;64.50;101661.59;4844240;29;20026;-96
2021/11/20 04:53:44;;;;;;;5.75;2.30;;;;;;;15.85;64.42;101656.41;4843796;29;20037;-95
2021/11/20 04:56:11;;;;;;;2.92;2.22;;;;;;;15.88;64.42;101663.31;4843106;29;20093;-96
2021/11/20 04:58:37;;;;;;;2.65;2.30;;;;;;;15.82;64.75;101661.94;4843743;29;20546;-95
2021/11/20 05:01:05;;;;;;;6.22;3.03;;;;;;;15.74;64.83;101664.28;4842164;29;20093;-95
2021/11/20 05:03:31;;;;;;;5.35;3.22;;;;;;;15.70;64.85;101660.13;4843751;29;20128;-96
2021/11/20 05:05:57;;;;;;;4.25;3.05;;;;;;;15.72;65.32;101663.50;4843893;29;20083;-95
2021/11/20 05:08:24;;;;;;;5.00;4.35;;;;;;;15.63;65.31;101657.03;4843871;29;20061;-93
2021/11/20 05:10:50;;;;;;;8.32;3.95;;;;;;;15.71;65.50;101659.16;4843672;29;20034;-93
2021/11/20 05:13:16;;;;;;;7.03;3.78;;;;;;;15.67;65.46;101662.97;4843612;29;20034;-93
2021/11/20 05:15:45;;;;;;;7.75;3.65;;;;;;;15.70;65.36;101651.31;4842353;29;20623;-92
2021/11/20 05:18:10;;;;;;;9.60;4.15;;;;;;;15.74;65.60;101648.38;4842345;29;20068;-93
2021/11/20 05:20:36;;;;;;;5.03;4.35;;;;;;;15.77;65.36;101648.16;4843650;29;20058;-93
2021/11/20 05:23:02;;;;;;;7.80;4.32;;;;;;;15.67;65.30;101647.91;4843535;29;20030;-93
2021/11/20 05:25:27;;;;;;;5.72;4.35;;;;;;;15.73;65.56;101644.03;4843470;29;20038;-92
2021/11/20 05:27:53;;;;;;;7.18;4.50;;;;;;;15.75;65.46;101649.22;4843415;29;20044;-92
2021/11/20 05:30:26;;;;;;;5.25;3.88;;;;;;;15.78;65.43;101644.56;4843284;29;20021;-92
2021/11/20 05:32:52;;;;;;;8.70;4.50;;;;;;;15.77;65.46;101640.22;4843247;29;20034;-93
2021/11/20 05:35:19;;;;;;;6.80;4.32;;;;;;;15.79;65.39;101638.31;4843166;29;20087;-93
2021/11/20 05:37:44;;;;;;;7.35;4.47;;;;;;;15.71;65.89;101639.78;4843203;29;20052;-95
2021/11/20 05:40:13;;;;;;;6.38;4.32;;;;;;;15.73;65.44;101635.25;4841480;29;20473;-94
2021/11/20 05:42:40;;;;;;;7.60;4.45;;;;;;;15.72;65.78;101639.69;4823230;29;20485;-95
2021/11/20 05:45:06;;;;;;;7.82;4.43;;;;;;;15.71;65.71;101631.84;4842750;29;20037;-95
2021/11/20 05:47:32;;;;;;;4.32;3.55;;;;;;;15.77;65.56;101637.56;4843209;29;20237;-95
2021/11/20 05:49:58;;;;;;;7.25;3.92;;;;;;;15.76;65.73;101630.59;4842347;29;20037;-95
2021/11/20 05:52:23;;;;;;;4.10;3.28;;;;;;;15.80;65.74;101631.22;4842616;29;20033;-95
2021/11/20 05:54:48;;;;;;;4.55;3.35;;;;;;;15.83;65.45;101625.69;4842470;29;20381;-95
2021/11/20 05:57:14;;;;;;;5.00;3.35;;;;;;;15.80;65.38;101625.94;4842756;29;20053;-94
2021/11/20 05:59:39;;;;;;;3.47;2.60;;;;;;;15.81;65.74;101623.16;4842387;29;20044;-95
2021/11/20 06:02:05;;;;;;;4.28;3.08;;;;;;;15.83;65.34;101621.25;4842943;29;20124;-95
2021/11/20 06:04:31;;;;;;;3.95;2.88;;;;;;;15.81;65.61;101612.56;4842411;29;20022;-94
2021/11/20 06:06:58;;;;;;;4.13;2.97;;;;;;;15.82;65.49;101614.25;4842173;29;20037;-94
2021/11/20 06:09:23;;;;;;;4.72;2.60;;;;;;;15.75;65.48;101607.69;4835978;29;20030;-94
2021/11/20 06:11:49;;;;;;;3.85;2.95;;;;;;;15.75;65.43;101614.81;4845463;29;20034;-95
2021/11/20 06:14:15;;;;;;;4.28;2.85;;;;;;;15.70;65.99;101615.09;4842404;29;20109;-95
2021/11/20 06:16:41;;;;;;;4.85;3.03;;;;;;;15.71;65.78;101614.13;4842358;29;20085;-95
2021/11/20 06:19:07;;;;;;;5.03;2.72;;;;;;;15.63;65.67;101611.19;4842500;29;20105;-94
2021/11/20 06:21:33;;;;;;;3.90;2.78;;;;;;;15.70;65.78;101609.81;4842479;29;20030;-94
2021/11/20 06:23:58;;;;;;;5.32;3.42;;;;;;;15.57;65.80;101611.63;4841484;29;20044;-95
2021/11/20 06:26:24;;;;;;;3.85;2.75;;;;;;;15.63;65.80;101613.84;4841909;29;20026;-95
2021/11/20 06:28:49;;;;;;;3.20;2.90;;;;;;;15.54;66.04;101609.16;4841081;29;20030;-95
2021/11/20 06:31:15;;;;;;;3.47;2.92;;;;;;;15.49;66.22;101603.38;4842074;29;20374;-95
2021/11/20 06:33:42;;;;;;;4.35;2.70;;;;;;;15.68;65.87;101601.13;4841918;29;20045;-95
2021/11/20 06:36:07;;;;;;;6.03;2.80;;;;;;;15.60;65.73;101598.16;4842167;29;20029;-94
2021/11/20 06:38:36;;;;;;;4.18;2.63;;;;;;;15.55;66.09;101595.00;4841646;29;20545;-95
2021/11/20 06:41:04;;;;;;;2.75;2.42;;;;;;;15.54;65.83;101596.81;4840520;29;20508;-95
2021/11/20 06:43:30;;;;;;;2.28;2.08;;;;;;;15.67;65.95;101594.13;4840890;29;20062;-95
2021/11/20 06:46:00;;;;;;;4.55;2.42;;;;;;;15.56;66.06;101583.44;4840640;29;20036;-94
2021/11/20 06:48:27;;;;;;;2.10;1.70;;;;;;;15.53;66.30;101583.66;4841561;29;20105;-94
2021/11/20 06:50:53;;;;;;;2.05;1.73;;;;;;;15.62;66.05;101585.66;4841650;29;20118;-94
2021/11/20 06:53:19;;;;;;;1.80;1.70;;;;;;;15.63;66.03;101582.06;4840807;29;20112;-94
2021/11/20 06:55:46;;;;;;;3.92;1.70;;;;;;;15.64;66.07;101592.56;4841449;29;20476;-94
2021/11/20 07:00:51;;;;;;;2.85;1.60;;;;;;;15.65;65.95;101586.28;4841994;29;20086;-95
2021/11/20 07:03:30;;;;;;;2.13;1.65;;;;;;;15.64;66.04;101584.59;4842078;29;20029;-95
2021/11/20 07:05:58;;;;;;;1.80;1.60;;;;;;;15.59;65.93;101585.88;4841568;29;20036;-94
2021/11/20 07:08:25;;;;;;;2.17;1.83;;;;;;;15.60;65.94;101587.56;4839800;29;20417;-94
2021/11/20 07:10:52;;;;;;;2.08;1.73;;;;;;;15.58;66.26;101589.47;4841741;29;20030;-94
2021/11/20 07:13:20;;;;;;;4.18;1.98;;;;;;;15.49;66.39;101585.69;4841516;29;20041;-95
2021/11/20 07:15:46;;;;;;;2.97;1.95;;;;;;;15.56;66.70;101591.38;4841646;29;20022;-94
2021/11/20 07:18:11;;;;;;;3.58;2.10;;;;;;;15.59;66.43;101586.72;4841215;29;20105;-95
2021/11/20 07:20:37;;;;;;;2.50;2.28;;;;;;;15.61;66.07;101578.69;4841515;29;20061;-94
2021/11/20 07:23:04;;;;;;;1.83;1.63;;;;;;;15.59;66.29;101581.44;4841131;29;20477;-95
2021/11/20 07:25:31;;;;;;;2.20;2.00;;;;;;;15.63;66.40;101579.41;4841309;29;20043;-95
2021/11/20 07:27:57;;;;;;;2.40;1.92;;;;;;;15.67;66.08;101583.53;4841035;29;20034;-95
2021/11/20 07:30:25;;;;;;;2.70;2.40;;;;;;;15.65;66.13;101580.16;4841131;29;20040;-95
2021/11/20 07:32:52;;;;;;;2.67;2.30;;;;;;;15.63;66.23;101582.06;4841474;29;20037;-94
2021/11/20 07:35:39;;;;;;;3.17;2.58;;;;;;;15.65;66.07;101580.16;4839795;29;20116;-94
2021/11/20 07:38:07;;;;;;;5.07;3.20;;;;;;;15.65;66.14;101581.00;4842992;29;20037;-94
2021/11/20 07:40:35;;;;;;;5.65;3.08;;;;;;;15.64;65.85;101575.81;4847032;29;20104;-94
2021/11/20 07:43:00;;;;;;;4.15;3.08;;;;;;;15.67;65.78;101580.88;4847229;29;20500;-94
2021/11/20 07:45:26;;;;;;;3.92;3.17;;;;;;;15.65;65.74;101578.34;4847362;29;20034;-94
2021/11/20 07:47:52;;;;;;;4.65;3.60;;;;;;;15.57;65.82;101577.19;4847453;29;20034;-94
2021/11/20 07:50:19;;;;;;;5.35;4.15;;;;;;;15.62;66.11;101569.75;4847344;29;20477;-94
2021/11/20 07:52:44;;;;;;;5.93;3.75;;;;;;;15.63;66.42;101576.75;4846312;29;20029;-94
2021/11/20 07:55:12;;;;;;;6.97;4.30;;;;;;;15.60;65.90;101567.25;4847408;29;20030;-94
2021/11/20 07:57:38;;;;;;;5.80;4.07;;;;;;;15.54;66.17;101561.53;4845931;29;20061;-93
2021/11/20 08:00:13;;;;;;;6.72;4.60;;;;;;;15.55;66.31;101563.22;4845702;29;20045;-94
2021/11/20 08:02:39;;;;;;;6.97;4.80;;;;;;;15.61;66.32;101560.97;4847024;29;20034;-94
2021/11/20 08:05:05;;;;;;;7.32;5.60;;;;;;;15.64;66.05;101563.44;4847082;29;20393;-95
2021/11/20 08:07:31;;;;;;;7.85;4.90;;;;;;;15.65;66.02;101559.81;4846781;29;20026;-95
2021/11/20 08:09:57;;;;;;;8.00;5.57;;;;;;;15.70;65.92;101550.69;4844386;29;20453;-95
2021/11/20 08:12:22;;;;;;;9.07;5.07;;;;;;;15.72;66.11;101554.94;4845607;29;20147;-93
2021/11/20 08:14:48;;;;;;;10.02;5.57;;;;;;;15.75;66.01;101557.38;4845476;29;20493;-94
2021/11/20 08:17:14;;;;;;;8.32;5.68;;;;;;;15.69;65.99;101557.78;4845677;29;20037;-91
2021/11/20 08:19:40;;;;;;;9.68;5.57;;;;;;;15.77;65.88;101559.94;4844468;29;20492;-91
2021/11/20 08:22:05;;;;;;;6.85;5.10;;;;;;;15.81;65.88;101556.09;4845303;29;20046;-94
2021/11/20 08:24:31;;;;;;;10.05;5.40;;;;;;;15.75;65.42;101546.78;4845432;29;20045;-94
2021/11/20 08:26:57;;;;;;;6.85;5.13;;;;;;;15.71;66.03;101542.66;4844702;29;20022;-94
2021/11/20 08:29:23;;;;;;;8.50;5.88;;;;;;;15.70;66.18;101540.97;4845103;29;20528;-94
2021/11/20 08:31:51;;;;;;;11.35;6.03;;;;;;;15.78;65.91;101546.59;4845687;29;20155;-93
2021/11/20 08:34:17;;;;;;;10.85;5.30;;;;;;;15.81;65.85;101538.41;4844131;29;20055;-94
2021/11/20 08:36:45;;;;;;;9.70;6.07;;;;;;;15.85;65.75;101529.28;4847632;29;20029;-91
2021/11/20 08:39:14;;;;;;;8.60;5.53;;;;;;;15.82;65.66;101534.81;4846184;29;20037;-92
2021/11/20 08:41:41;;;;;;;10.60;5.65;;;;;;;15.81;65.66;101535.75;4844578;29;20069;-94
2021/11/20 08:44:06;;;;;;;7.82;4.75;;;;;;;15.89;65.76;101531.72;4845188;29;20022;-95
2021/11/20 08:46:33;;;;;;;6.70;4.65;;;;;;;15.96;65.58;101522.38;4845112;29;20093;-94
2021/11/20 08:48:59;;;;;;;6.88;4.93;;;;;;;15.94;65.33;101517.19;4846572;29;20030;-93
2021/11/20 08:51:26;;;;;;;8.00;5.45;;;;;;;16.05;65.38;101521.69;4837921;29;20508;-92
2021/11/20 08:53:53;;;;;;;7.78;5.43;;;;;;;16.03;65.37;101516.53;4840376;29;20125;-92
2021/11/20 08:56:20;;;;;;;7.63;5.00;;;;;;;16.10;65.10;101506.31;4842652;29;20033;-91
2021/11/20 08:58:47;;;;;;;9.68;6.45;;;;;;;16.01;65.18;101506.97;4842055;29;20026;-93
2021/11/20 09:01:15;;;;;;;8.93;6.78;;;;;;;16.01;65.58;101507.81;4842198;29;20045;-94
2021/11/20 09:03:53;;;;;;;9.45;6.50;;;;;;;15.94;65.54;101505.75;4843636;29;20121;-94
2021/11/20 09:06:35;;;;;;;11.07;6.20;;;;;;;15.99;65.20;101506.25;4842152;29;20030;-93
2021/11/20 09:09:33;;;;;;;10.10;7.25;;;;;;;16.00;65.59;101510.59;4840367;29;20038;-95
2021/11/20 09:12:01;;;;;;;12.70;8.13;;;;;;;16.02;65.98;101513.97;4843961;29;20438;-94
2021/11/20 09:14:32;;;;;;;13.45;6.95;;;;;;;16.08;65.88;101516.19;4845665;29;20067;-93
2021/11/20 09:16:59;;;;;;;12.02;7.55;;;;;;;15.94;64.47;101508.41;4839622;29;20174;-95
2021/11/20 09:19:34;;;;;;;9.98;7.13;;;;;;;16.17;65.54;101504.91;4842595;29;20033;-88
2021/11/20 09:22:01;;;;;;;11.85;6.70;;;;;;;16.18;65.49;101508.41;4841848;29;20037;-92
2021/11/20 09:24:29;;;;;;;10.85;6.45;;;;;;;16.24;65.48;101503.47;4842237;29;20038;-92
2021/11/20 09:26:56;;;;;;;11.20;6.35;;;;;;;16.21;64.97;101506.38;4842180;29;20370;-91
2021/11/20 09:29:26;;;;;;;15.82;8.15;;;;;;;16.32;65.00;101508.22;4843057;29;20389;-93
2021/11/20 09:31:52;;;;;;;11.65;7.00;;;;;;;16.35;64.89;101507.13;4843498;29;20504;-93
2021/11/20 09:34:17;;;;;;;9.77;7.55;;;;;;;16.35;65.04;101504.47;4845637;29;20037;-92
2021/11/20 09:36:45;;;;;;;11.45;6.47;;;;;;;16.42;64.88;101514.50;4852180;29;20036;-95
2021/11/20 09:39:13;;;;;;;15.05;7.72;;;;;;;16.47;64.53;101519.47;4848980;29;20038;-93
2021/11/20 09:41:43;;;;;;;12.23;7.65;;;;;;;16.50;64.42;101511.28;4851485;29;20034;-96
2021/11/20 09:44:08;;;;;;;12.35;8.50;;;;;;;16.52;64.29;101512.00;4846343;29;20493;-96
2021/11/20 09:46:44;;;;;;;11.10;7.80;;;;;;;16.56;64.14;101510.81;4844382;29;20064;-95
2021/11/20 09:49:17;;;;;;;10.70;7.22;;;;;;;16.58;63.78;101513.34;4852061;29;20101;-92
2021/11/20 09:51:47;;;;;;;9.82;5.68;;;;;;;16.61;63.63;101510.47;4844621;29;20112;-96
2021/11/20 09:54:27;;;;;;;14.93;6.60;;;;;;;16.64;63.66;101504.94;4848295;29;20030;-94
2021/11/20 09:56:55;;;;;;;7.65;5.85;;;;;;;16.65;63.66;101510.13;4850208;29;20472;-94
2021/11/20 09:59:33;;;;;;;8.48;5.32;;;;;;;16.70;63.52;101508.94;4853613;29;20029;-93
2021/11/20 10:02:10;;;;;;;7.97;4.68;;;;;;;16.75;63.72;101512.09;4850792;29;20112;-94
2021/11/20 10:04:51;;;;;;;6.18;4.90;;;;;;;16.79;63.57;101514.38;4847729;29;20030;-96
2021/11/20 10:07:36;;;;;;;10.80;4.68;;;;;;;16.75;63.08;101517.38;4849162;29;20032;-96
2021/11/20 10:10:20;;;;;;;6.20;3.67;;;;;;;16.70;64.02;101514.22;4847457;29;20026;-95
2021/11/20 10:13:04;;;;;;;5.93;3.97;;;;;;;16.69;63.18;101507.25;4844359;29;20568;-93
2021/11/20 10:15:33;;;;;;;5.60;4.13;;;;;;;16.72;63.04;101504.34;4843035;29;20076;-95
2021/11/20 10:18:40;;;;;;;6.00;3.90;;;;;;;16.77;63.77;101499.56;4845687;29;20030;-93
2021/11/20 10:21:17;;;;;;;5.05;3.55;;;;;;;16.77;62.93;101496.91;4849707;29;20026;-95
2021/11/20 10:23:51;;;;;;;6.78;3.75;;;;;;;16.92;62.60;101484.28;4845022;29;20055;-94
2021/11/20 10:26:54;;;;;;;6.80;3.85;;;;;;;16.84;62.26;101490.16;4848656;29;20036;-96
2021/11/20 10:29:45;;;;;;;7.55;4.65;;;;;;;16.93;63.00;101491.28;4848129;29;20516;-91
2021/11/20 10:32:21;;;;;;;7.90;4.85;;;;;;;16.84;63.16;101491.03;4834535;29;20041;-93
2021/11/20 10:34:52;;;;;;;10.45;5.53;;;;;;;16.87;62.76;101489.94;4850440;29;20029;-94
2021/11/20 10:38:04;;;;;;;9.20;4.80;;;;;;;16.89;62.67;101490.66;4846448;29;20030;-93
2021/11/20 10:40:45;;;;;;;9.07;5.07;;;;;;;17.00;62.51;101497.78;4804715;29;20043;-93
2021/11/20 10:43:46;;;;;;;9.83;5.53;;;;;;;16.95;62.61;101487.53;4844444;29;20101;-95
2021/11/20 10:46:27;;;;;;;9.43;5.65;;;;;;;16.94;62.99;101480.56;4849354;29;20221;-94
2021/11/20 10:49:30;;;;;;;7.55;5.72;;;;;;;16.73;63.00;101487.50;4844277;29;20038;-96
2021/11/20 10:52:18;;;;;;;8.88;6.10;;;;;;;16.68;63.21;101482.53;4857763;29;20041;-93
2021/11/20 10:55:15;;;;;;;11.55;6.43;;;;;;;16.72;63.60;101476.00;4849164;29;20058;-92
2021/11/20 10:58:11;;;;;;;12.00;6.15;;;;;;;16.80;63.15;101472.78;4850359;29;20064;-93
2021/11/20 11:01:15;;;;;;;8.77;6.25;;;;;;;16.89;62.96;101461.50;4853414;29;20026;-93
2021/11/20 11:04:14;;;;;;;11.20;6.78;;;;;;;16.96;62.80;101449.44;4851063;29;20045;-93
2021/11/20 11:06:48;;;;;;;10.57;6.32;;;;;;;16.99;62.16;101449.19;4845813;29;20085;-93
2021/11/20 11:09:16;;;;;;;8.65;5.13;;;;;;;16.97;62.87;101439.69;4846536;29;20069;-92
2021/11/20 11:11:53;;;;;;;10.48;5.97;;;;;;;16.93;62.51;101436.41;4853111;29;20033;-92
2021/11/20 11:14:39;;;;;;;13.93;6.53;;;;;;;16.78;63.41;101438.41;4845996;29;20063;-93
2021/11/20 11:17:13;;;;;;;8.60;5.72;;;;;;;16.94;62.86;101435.47;4848063;29;20041;-92
2021/11/20 11:19:55;;;;;;;11.25;5.93;;;;;;;17.08;63.00;101434.38;4850077;29;20117;-96
2021/11/20 11:22:34;;;;;;;;;;;;;;;17.09;62.60;101428.09;4846322;29;20061;-90
2021/11/20 11:25:21;;;;;;;8.45;5.13;;;;;;;17.02;61.74;101425.09;4850385;29;19977;-93
2021/11/20 11:28:27;;;;;;;9.15;5.60;;;;;;;17.03;62.19;101408.19;4851438;29;20033;-91
2021/11/20 11:31:09;;;;;;;9.95;5.20;;;;;;;17.16;62.50;101407.19;4781366;29;20032;-92
2021/11/20 11:33:44;;;;;;;10.40;5.40;;;;;;;17.14;61.97;101401.19;4844983;29;20045;-92
2021/11/20 11:36:24;;;;;;;9.30;5.53;;;;;;;17.22;62.27;101401.44;4849178;29;20484;-93
2021/11/20 11:39:20;;;;;;;7.53;4.60;;;;;;;17.22;62.65;101398.78;4841826;29;20037;-94
2021/11/20 11:41:49;;;;;;;9.70;5.32;;;;;;;17.17;62.39;101390.31;4840272;29;20531;-95